createdAt,value
2018-03-28T00:04:00.000Z,5.3
2018-03-28T00:09:00.000Z,5.2
2018-03-28T00:14:00.000Z,5.0
2018-03-28T00:19:00.000Z,4.9
2018-03-28T00:24:00.000Z,4.9
2018-03-28T00:29:00.000Z,4.9
2018-03-28T00:34:00.000Z,5.0
2018-03-28T00:39:00.000Z,4.9
2018-03-28T00:44:00.000Z,4.9
2018-03-28T00:55:00.000Z,4.8
2018-03-28T01:05:00.000Z,4.8
2018-03-28T01:10:00.000Z,4.8
2018-03-28T01:15:00.000Z,4.8
2018-03-28T01:20:00.000Z,4.8
2018-03-28T01:25:00.000Z,4.7
2018-03-28T01:30:00.000Z,4.6
2018-03-28T01:35:00.000Z,4.5
2018-03-28T01:40:00.000Z,4.5
2018-03-28T01:45:00.000Z,4.6
2018-03-28T01:50:00.000Z,4.7
2018-03-28T01:55:00.000Z,4.8
2018-03-28T02:00:00.000Z,4.9
2018-03-28T02:05:00.000Z,5.0
2018-03-28T02:10:00.000Z,5.1
2018-03-28T02:16:00.000Z,5.2
2018-03-28T02:21:00.000Z,5.1
2018-03-28T02:26:00.000Z,4.9
2018-03-28T02:31:00.000Z,4.6
2018-03-28T02:36:00.000Z,4.4
2018-03-28T02:41:00.000Z,4.4
2018-03-28T02:46:00.000Z,4.3
2018-03-28T02:51:00.000Z,4.3
2018-03-28T02:56:00.000Z,4.3
2018-03-28T03:01:00.000Z,4.3
2018-03-28T03:06:00.000Z,4.2
2018-03-28T03:11:00.000Z,4.1
2018-03-28T03:16:00.000Z,4.2
2018-03-28T03:21:00.000Z,4.3
2018-03-28T03:26:00.000Z,4.4
2018-03-28T03:31:00.000Z,4.5
2018-03-28T03:36:00.000Z,4.5
2018-03-28T03:41:00.000Z,4.6
2018-03-28T03:46:00.000Z,4.8
2018-03-28T03:51:00.000Z,4.9
2018-03-28T03:56:00.000Z,5.0
2018-03-28T04:01:00.000Z,4.9
2018-03-28T04:06:00.000Z,4.8
2018-03-28T04:11:00.000Z,4.7
2018-03-28T04:16:00.000Z,4.6
2018-03-28T04:21:00.000Z,4.6
2018-03-28T04:26:00.000Z,4.6
2018-03-28T04:31:00.000Z,4.7
2018-03-28T04:36:00.000Z,4.6
2018-03-28T04:41:00.000Z,4.6
2018-03-28T04:46:00.000Z,4.5
2018-03-28T04:51:00.000Z,4.5
2018-03-28T04:56:00.000Z,4.4
2018-03-28T05:01:00.000Z,4.5
2018-03-28T05:06:00.000Z,4.7
2018-03-28T05:11:00.000Z,4.8
2018-03-28T05:16:00.000Z,4.9
2018-03-28T05:21:00.000Z,4.9
2018-03-28T05:26:00.000Z,5.1
2018-03-28T05:31:00.000Z,5.0
2018-03-28T05:36:00.000Z,4.9
2018-03-28T05:41:00.000Z,4.9
2018-03-28T05:46:00.000Z,4.7
2018-03-28T05:51:00.000Z,4.5
2018-03-28T05:56:00.000Z,4.3
2018-03-28T06:01:00.000Z,4.2
2018-03-28T06:06:00.000Z,4.4
2018-03-28T06:11:00.000Z,4.5
2018-03-28T06:16:00.000Z,4.7
2018-03-28T06:21:00.000Z,4.9
2018-03-28T06:26:00.000Z,5.1
2018-03-28T06:31:00.000Z,5.1
2018-03-28T06:36:00.000Z,5.1
2018-03-28T06:41:00.000Z,5.2
2018-03-28T06:46:00.000Z,5.6
2018-03-28T06:51:00.000Z,5.9
2018-03-28T06:56:00.000Z,6.3
2018-03-28T07:01:00.000Z,6.4
2018-03-28T07:06:00.000Z,6.5
2018-03-28T07:11:00.000Z,6.7
2018-03-28T07:16:00.000Z,7.0
2018-03-28T07:21:00.000Z,7.0
2018-03-28T07:26:00.000Z,6.9
2018-03-28T07:31:00.000Z,7.0
2018-03-28T07:36:00.000Z,7.2
2018-03-28T07:41:00.000Z,7.2
2018-03-28T07:46:00.000Z,7.5
2018-03-28T07:52:00.000Z,7.6
2018-03-28T07:57:00.000Z,7.8
2018-03-28T08:02:00.000Z,7.8
2018-03-28T08:07:00.000Z,8.0
2018-03-28T08:12:00.000Z,8.2
2018-03-28T08:17:00.000Z,8.5
2018-03-28T08:22:00.000Z,8.8
2018-03-28T08:27:00.000Z,9.0
2018-03-28T08:32:00.000Z,9.6
2018-03-28T08:37:00.000Z,10.4
2018-03-28T08:42:00.000Z,11.5
2018-03-28T08:47:00.000Z,12.0
2018-03-28T08:52:00.000Z,12.4
2018-03-28T08:57:00.000Z,12.8
2018-03-28T09:02:00.000Z,12.6
2018-03-28T09:07:00.000Z,13.1
2018-03-28T09:12:00.000Z,13.4
2018-03-28T09:17:00.000Z,13.5
2018-03-28T09:22:00.000Z,13.6
2018-03-28T09:27:00.000Z,13.7
2018-03-28T09:32:00.000Z,13.9
2018-03-28T09:37:00.000Z,14.2
2018-03-28T09:42:00.000Z,14.6
2018-03-28T09:47:00.000Z,14.9
2018-03-28T09:52:00.000Z,14.4
2018-03-28T09:57:00.000Z,14.2
2018-03-28T10:02:00.000Z,14.5
2018-03-28T10:07:00.000Z,14.1
2018-03-28T10:12:00.000Z,13.9
2018-03-28T10:17:00.000Z,14.0
2018-03-28T10:22:00.000Z,13.9
2018-03-28T10:27:00.000Z,13.6
2018-03-28T10:32:00.000Z,13.4
2018-03-28T10:37:00.000Z,13.3
2018-03-28T10:42:00.000Z,13.4
2018-03-28T10:47:00.000Z,13.7
2018-03-28T10:52:00.000Z,13.9
2018-03-28T10:57:00.000Z,14.1
2018-03-28T11:02:00.000Z,14.6
2018-03-28T11:07:00.000Z,14.5
2018-03-28T11:12:00.000Z,14.4
2018-03-28T11:17:00.000Z,14.2
2018-03-28T11:22:00.000Z,13.9
2018-03-28T11:27:00.000Z,13.8
2018-03-28T11:32:00.000Z,13.6
2018-03-28T11:37:00.000Z,13.4
2018-03-28T11:42:00.000Z,13.1
2018-03-28T11:47:00.000Z,13.4
2018-03-28T11:52:00.000Z,13.9
2018-03-28T11:57:00.000Z,14.3
2018-03-28T12:02:00.000Z,14.3
2018-03-28T12:07:00.000Z,14.4
2018-03-28T12:12:00.000Z,14.3
2018-03-28T12:17:00.000Z,14.1
2018-03-28T12:22:00.000Z,13.7
2018-03-28T12:27:00.000Z,13.5
2018-03-28T12:32:00.000Z,13.3
2018-03-28T12:37:00.000Z,13.0
2018-03-28T12:42:00.000Z,13.2
2018-03-28T12:47:00.000Z,13.1
2018-03-28T12:52:00.000Z,12.7
2018-03-28T12:57:00.000Z,12.5
2018-03-28T13:02:00.000Z,12.1
2018-03-28T13:07:00.000Z,11.7
2018-03-28T13:12:00.000Z,11.6
2018-03-28T13:17:00.000Z,11.6
2018-03-28T13:22:00.000Z,11.4
2018-03-28T13:27:00.000Z,11.3
2018-03-28T13:32:00.000Z,11.5
2018-03-28T13:37:00.000Z,11.5
2018-03-28T13:42:00.000Z,11.8
2018-03-28T13:47:00.000Z,11.7
2018-03-28T13:53:00.000Z,11.6
2018-03-28T13:58:00.000Z,11.5
2018-03-28T14:03:00.000Z,11.5
2018-03-28T14:08:00.000Z,11.5
2018-03-28T14:13:00.000Z,11.3
2018-03-28T14:18:00.000Z,11.1
2018-03-28T14:23:00.000Z,11.2
2018-03-28T14:28:00.000Z,11.0
2018-03-28T14:33:00.000Z,10.9
2018-03-28T14:38:00.000Z,10.8
2018-03-28T14:43:00.000Z,10.7
2018-03-28T14:48:00.000Z,10.4
2018-03-28T14:53:00.000Z,10.4
2018-03-28T14:58:00.000Z,10.5
2018-03-28T15:03:00.000Z,10.5
2018-03-28T15:08:00.000Z,10.5
2018-03-28T15:13:00.000Z,10.5
2018-03-28T15:18:00.000Z,10.7
2018-03-28T15:23:00.000Z,10.9
2018-03-28T15:28:00.000Z,11.0
2018-03-28T15:33:00.000Z,10.9
2018-03-28T15:38:00.000Z,10.8
2018-03-28T15:43:00.000Z,10.8
2018-03-28T15:48:00.000Z,10.8
2018-03-28T15:53:00.000Z,10.7
2018-03-28T15:58:00.000Z,10.8
2018-03-28T16:03:00.000Z,10.8
2018-03-28T16:08:00.000Z,10.7
2018-03-28T16:13:00.000Z,10.6
2018-03-28T16:18:00.000Z,10.6
2018-03-28T16:23:00.000Z,10.6
2018-03-28T16:28:00.000Z,10.6
2018-03-28T16:33:00.000Z,10.6
2018-03-28T16:38:00.000Z,10.6
2018-03-28T16:43:00.000Z,10.5
2018-03-28T16:48:00.000Z,10.5
2018-03-28T16:53:00.000Z,10.5
2018-03-28T16:58:00.000Z,10.5
2018-03-28T17:03:00.000Z,10.4
2018-03-28T17:08:00.000Z,10.3
2018-03-28T17:13:00.000Z,10.2
2018-03-28T17:18:00.000Z,10.2
2018-03-28T17:23:00.000Z,10.3
2018-03-28T17:28:00.000Z,10.3
2018-03-28T17:33:00.000Z,10.3
2018-03-28T17:38:00.000Z,10.3
2018-03-28T17:43:00.000Z,10.4
2018-03-28T17:48:00.000Z,10.4
2018-03-28T17:53:00.000Z,10.4
2018-03-28T17:58:00.000Z,10.5
2018-03-28T18:03:00.000Z,10.6
2018-03-28T18:08:00.000Z,10.7
2018-03-28T18:13:00.000Z,10.7
2018-03-28T18:18:00.000Z,10.8
2018-03-28T18:23:00.000Z,10.8
2018-03-28T18:28:00.000Z,10.8
2018-03-28T18:33:00.000Z,10.7
2018-03-28T18:38:00.000Z,10.6
2018-03-28T18:43:00.000Z,10.7
2018-03-28T18:48:00.000Z,10.7
2018-03-28T18:53:00.000Z,10.8
2018-03-28T18:58:00.000Z,10.8
2018-03-28T19:03:00.000Z,10.8
2018-03-28T19:08:00.000Z,10.8
2018-03-28T19:13:00.000Z,10.8
2018-03-28T19:18:00.000Z,10.8
2018-03-28T19:23:00.000Z,10.6
2018-03-28T19:29:00.000Z,10.5
2018-03-28T19:34:00.000Z,10.4
2018-03-28T19:39:00.000Z,10.4
2018-03-28T19:44:00.000Z,10.4
2018-03-28T19:49:00.000Z,10.3
2018-03-28T19:54:00.000Z,10.3
2018-03-28T19:59:00.000Z,10.4
2018-03-28T20:04:00.000Z,10.4
2018-03-28T20:09:00.000Z,10.4
2018-03-28T20:14:00.000Z,10.4
2018-03-28T20:19:00.000Z,10.4
2018-03-28T20:24:00.000Z,10.4
2018-03-28T20:29:00.000Z,10.3
2018-03-28T20:34:00.000Z,10.2
2018-03-28T20:39:00.000Z,10.2
2018-03-28T20:44:00.000Z,10.2
2018-03-28T20:49:00.000Z,10.1
2018-03-28T20:54:00.000Z,10.0
2018-03-28T20:59:00.000Z,9.9
2018-03-28T21:04:00.000Z,9.8
2018-03-28T21:09:00.000Z,9.9
2018-03-28T21:14:00.000Z,9.8
2018-03-28T21:19:00.000Z,9.8
2018-03-28T21:24:00.000Z,9.9
2018-03-28T21:29:00.000Z,10.0
2018-03-28T21:34:00.000Z,10.0
2018-03-28T21:39:00.000Z,10.0
2018-03-28T21:44:00.000Z,10.1
2018-03-28T21:49:00.000Z,10.2
2018-03-28T21:54:00.000Z,10.3
2018-03-28T21:59:00.000Z,10.4
2018-03-28T22:04:00.000Z,10.4
2018-03-28T22:09:00.000Z,10.4
2018-03-28T22:14:00.000Z,10.4
2018-03-28T22:19:00.000Z,10.5
2018-03-28T22:24:00.000Z,10.7
2018-03-28T22:29:00.000Z,10.7
2018-03-28T22:34:00.000Z,10.7
2018-03-28T22:39:00.000Z,10.7
2018-03-28T22:44:00.000Z,10.7
2018-03-28T22:49:00.000Z,10.8
2018-03-28T22:54:00.000Z,10.8
2018-03-28T22:59:00.000Z,10.8
2018-03-28T23:04:00.000Z,10.8
2018-03-28T23:09:00.000Z,10.8
2018-03-28T23:14:00.000Z,10.9
2018-03-28T23:19:00.000Z,10.9
2018-03-28T23:24:00.000Z,10.9
2018-03-28T23:29:00.000Z,10.9
2018-03-28T23:34:00.000Z,10.9
2018-03-28T23:39:00.000Z,10.8
2018-03-28T23:44:00.000Z,10.8
2018-03-28T23:49:00.000Z,10.8
2018-03-28T23:54:00.000Z,10.7
2018-03-28T23:59:00.000Z,10.7
